Floresville, TX

12:36 AM CST on January 29, 2015 (GMT -0600)
Kelly Air Force Base | Change Station
CLOSE
Current Station
Airport
Location: KellyUSA Airport,
Elevation: 689 ft
Nearby Weather Stations

Elev 689 ft 29.38 °N, 98.58 °W | Updated 38 minutes ago

Clear
Clear
56 °F
Feels Like 56 °F
N
4
Wind Variable Wind from South

Today
High -- | Low -- °F
--% Chance of Precip.
Yesterday
High -- | Low -- °F
Precip. -- in
7:23 AM 6:08 PM
Waxing Gibbous, 71% visible
Pressure 30.12 in
Visibility 10.0 miles
Clouds Clear
Dew Point 52 °F
Humidity 88%
Rainfall 0.00 in
Snow Depth Not available.
UV 0 out of 12
Pollen 8.70 out of 12
Air Quality Not available.
Flu Activity Not available.
METAR KSKF 290558Z AUTO 17003KT 10SM CLR 13/11 A3013 RMK AO2 SLP200 T01320113 10215 20130 402590048 51009 $

More Conditions Fewer Conditions

Pressure 30.12 in
Visibility 10.0 miles
Clouds Clear
Dew Point 52 °F
Humidity 88%
Rainfall 0.00 in
Snow Depth Not available.
UV 0 out of 12
Pollen 8.70 out of 12
Air Quality Not available.
Flu Activity Not available.
METAR KSKF 290558Z AUTO 17003KT 10SM CLR 13/11 A3013 RMK AO2 SLP200 T01320113 10215 20130 402590048 51009 $

More Conditions Fewer Conditions

10-Day Weather Forecast

Almanac

Astronomy

Jan. 29, 2015 Rise Set
Actual Time
Civil Twilight
Nautical Twilight
Astronomical Twilight
Moon
Length of Visible Light
Length of Day
Tomorrow will be .
, % of the Moon is Illuminated

Today's Extremes

State Highs State Lows

Community

WunderPhotos

Upload Photos

1,791,377 photos uploaded!

WunderBlogs® & News

Nearby

Air Quality

  Air Quality AQ Index Pollutant
Not available.

Snow Depth

Station Depth Elevation

Earthquake Activity

City Distance Mag. Time & Date
Minimum magnitude displayed is 2.5.

Coastal Water Temperatures

Place Temperature

Nearby Weather Stations